createdAt,value
2022-07-29T00:02:16.382Z,3.95
2022-07-29T00:04:42.641Z,3.85
2022-07-29T00:07:08.858Z,3.90
2022-07-29T00:09:43.037Z,3.88
2022-07-29T00:12:21.497Z,3.90
2022-07-29T00:14:56.835Z,5.15
2022-07-29T00:17:24.441Z,3.60
2022-07-29T00:19:50.693Z,3.47
2022-07-29T00:22:16.891Z,4.05
2022-07-29T00:24:43.130Z,4.32
2022-07-29T00:27:09.292Z,3.97
2022-07-29T00:29:35.613Z,4.90
2022-07-29T00:32:03.191Z,3.80
2022-07-29T00:34:47.856Z,3.72
2022-07-29T00:37:14.007Z,3.67
2022-07-29T00:39:40.169Z,3.72
2022-07-29T11:46:49.966Z,2.88
2022-07-29T11:49:32.275Z,2.78
2022-07-29T11:52:02.493Z,2.92
2022-07-29T11:54:52.267Z,3.08
2022-07-29T11:57:22.106Z,2.35
2022-07-29T11:59:48.770Z,3.22
2022-07-29T12:02:37.277Z,2.50
2022-07-29T12:05:01.932Z,2.65
2022-07-29T12:07:38.056Z,2.90
2022-07-29T12:10:06.275Z,2.50
2022-07-29T12:12:32.662Z,2.42
2022-07-29T12:14:58.913Z,2.92
2022-07-29T12:17:34.014Z,2.75
2022-07-29T12:20:05.018Z,2.40
2022-07-29T12:22:38.214Z,2.80
2022-07-29T12:25:32.544Z,2.42
2022-07-29T12:28:01.093Z,2.40
2022-07-29T12:30:42.215Z,2.78
2022-07-29T12:33:13.559Z,2.90
2022-07-29T12:35:40.763Z,2.88
2022-07-29T12:38:07.261Z,2.63
2022-07-29T12:40:33.600Z,2.60
2022-07-29T12:43:10.515Z,2.40
2022-07-29T12:45:41.781Z,2.50
2022-07-29T12:48:10.033Z,2.58
2022-07-29T12:50:38.371Z,2.30
2022-07-29T12:53:14.476Z,2.17
2022-07-29T12:55:55.439Z,6.32
2022-07-29T12:58:35.431Z,2.47
2022-07-29T13:01:17.113Z,2.60
2022-07-29T13:04:01.720Z,2.13
2022-07-29T13:06:32.584Z,2.30
2022-07-29T13:09:11.672Z,2.20
2022-07-29T13:11:44.047Z,2.10
2022-07-29T13:14:15.266Z,2.10
2022-07-29T13:17:10.774Z,2.30
2022-07-29T13:19:42.874Z,2.72
2022-07-29T13:22:11.611Z,2.58
2022-07-29T13:24:47.480Z,2.33
2022-07-29T13:27:15.960Z,2.00
2022-07-29T13:29:42.102Z,2.50
2022-07-29T13:32:08.494Z,2.08
2022-07-29T13:34:34.681Z,2.00
2022-07-29T13:37:00.842Z,2.10
2022-07-29T13:39:27.086Z,2.08
2022-07-29T13:41:53.594Z,2.38
2022-07-29T13:44:19.743Z,2.67
2022-07-29T13:46:45.900Z,2.45
2022-07-29T13:49:12.447Z,2.33
2022-07-29T13:51:39.289Z,2.50
2022-07-29T13:54:05.653Z,2.45
2022-07-29T13:56:31.950Z,2.38
2022-07-29T13:58:58.303Z,2.40
2022-07-29T14:01:25.334Z,2.17
2022-07-29T14:03:51.508Z,1.90
2022-07-29T14:06:17.681Z,2.25
2022-07-29T14:08:44.531Z,1.98
2022-07-29T14:11:10.728Z,2.70
2022-07-29T14:13:36.883Z,2.05
2022-07-29T14:16:03.126Z,1.80
2022-07-29T14:18:29.386Z,2.00
2022-07-29T14:20:55.615Z,2.20
2022-07-29T14:23:21.839Z,3.28
2022-07-29T14:25:48.239Z,2.53
2022-07-29T14:28:15.836Z,2.33
2022-07-29T14:30:42.646Z,2.30
2022-07-29T14:33:09.139Z,2.00
2022-07-29T14:35:35.298Z,1.90
2022-07-29T14:38:01.467Z,2.05
2022-07-29T14:40:27.743Z,1.92
2022-07-29T14:42:53.904Z,2.13
2022-07-29T14:45:20.055Z,1.80
2022-07-29T14:47:46.231Z,2.00
2022-07-29T14:50:12.492Z,2.10
2022-07-29T14:52:38.978Z,2.20
2022-07-29T14:55:05.726Z,1.80
2022-07-29T14:57:42.890Z,2.00
2022-07-29T15:00:10.385Z,2.00
2022-07-29T15:03:00.498Z,2.17
2022-07-29T15:05:22.704Z,1.60
2022-07-29T15:07:48.866Z,1.98
2022-07-29T15:10:15.620Z,1.58
2022-07-29T15:12:41.835Z,1.60
2022-07-29T15:15:09.747Z,2.08
2022-07-29T15:17:35.961Z,2.63
2022-07-29T15:20:02.295Z,1.90
2022-07-29T15:22:28.608Z,1.58
2022-07-29T15:24:54.751Z,1.98
2022-07-29T15:27:20.911Z,1.77
2022-07-29T15:29:47.096Z,2.20
2022-07-29T15:32:13.340Z,2.08
2022-07-29T15:34:39.562Z,1.98
2022-07-29T15:37:05.934Z,2.15
2022-07-29T15:39:32.204Z,1.98
2022-07-29T15:42:01.134Z,2.05
2022-07-29T15:44:27.871Z,1.95
2022-07-29T15:47:09.160Z,1.50
2022-07-29T15:49:47.526Z,2.00
2022-07-29T15:52:25.991Z,2.10
2022-07-29T15:54:53.112Z,1.58
2022-07-29T15:57:19.385Z,1.90
2022-07-29T15:59:45.530Z,1.80
2022-07-29T16:02:11.815Z,1.75
2022-07-29T16:04:38.056Z,1.90
2022-07-29T16:07:04.632Z,1.80
2022-07-29T16:09:30.955Z,1.80
2022-07-29T16:11:57.131Z,2.10
2022-07-29T16:14:23.536Z,1.85
2022-07-29T16:16:51.358Z,2.03
2022-07-29T16:19:17.588Z,1.80
2022-07-29T16:21:43.835Z,1.75
2022-07-29T16:24:10.011Z,1.83
2022-07-29T16:26:36.580Z,1.88
2022-07-29T16:29:04.070Z,1.67
2022-07-29T16:31:30.260Z,1.77
2022-07-29T16:33:56.636Z,1.60
2022-07-29T16:36:23.044Z,2.03
2022-07-29T16:38:49.739Z,1.80
2022-07-29T16:41:16.006Z,1.77
2022-07-29T16:43:42.162Z,1.50
2022-07-29T16:46:09.537Z,1.48
2022-07-29T16:48:44.961Z,1.88
2022-07-29T16:51:11.806Z,1.60
2022-07-29T16:53:40.745Z,1.50
2022-07-29T16:56:06.894Z,1.60
2022-07-29T16:58:39.215Z,1.80
2022-07-29T17:01:07.622Z,1.88
2022-07-29T17:03:33.822Z,1.70
2022-07-29T17:05:59.975Z,1.80
2022-07-29T17:08:26.161Z,1.80
2022-07-29T17:10:52.325Z,1.25
2022-07-29T17:13:18.489Z,1.63
2022-07-29T17:15:44.643Z,1.92
2022-07-29T17:18:12.453Z,1.42
2022-07-29T17:20:42.058Z,1.92
2022-07-29T17:23:08.315Z,1.55
2022-07-29T17:25:34.520Z,1.90
2022-07-29T17:28:01.252Z,1.63
2022-07-29T17:30:27.579Z,1.42
2022-07-29T17:32:53.937Z,1.90
2022-07-29T17:35:38.827Z,1.80
2022-07-29T17:38:04.992Z,1.65
2022-07-29T17:40:31.150Z,1.52
2022-07-29T17:42:57.444Z,2.13
2022-07-29T17:45:23.597Z,1.70
2022-07-29T17:47:49.795Z,2.15
2022-07-29T17:50:15.936Z,2.20
2022-07-29T17:52:42.115Z,2.80
2022-07-29T17:55:10.358Z,2.15
2022-07-29T17:57:36.910Z,1.77
2022-07-29T18:00:04.494Z,1.70
2022-07-29T18:02:34.828Z,1.90
2022-07-29T18:05:01.068Z,2.60
2022-07-29T18:07:27.249Z,2.97
2022-07-29T18:09:56.359Z,2.88
2022-07-29T18:12:26.292Z,3.03
2022-07-29T18:14:53.299Z,2.55
2022-07-29T18:17:19.489Z,3.83
2022-07-29T18:19:45.701Z,3.90
2022-07-29T18:22:13.329Z,3.38
2022-07-29T18:24:39.487Z,3.90
2022-07-29T18:27:05.668Z,3.35
2022-07-29T18:29:31.852Z,2.60
2022-07-29T18:31:59.932Z,2.30
2022-07-29T18:34:26.101Z,3.30
2022-07-29T18:36:52.266Z,2.90
2022-07-29T18:39:20.520Z,3.40
2022-07-29T18:41:50.731Z,4.13
2022-07-29T18:44:18.208Z,2.80
2022-07-29T18:46:47.239Z,3.40
2022-07-29T18:49:14.465Z,2.88
2022-07-29T18:51:40.712Z,3.15
2022-07-29T18:54:06.917Z,2.15
2022-07-29T18:56:33.069Z,2.00
2022-07-29T18:58:59.248Z,2.45
2022-07-29T19:01:25.626Z,2.10
2022-07-29T19:03:58.136Z,2.03
2022-07-29T19:06:25.945Z,2.00
2022-07-29T19:08:52.580Z,2.42
2022-07-29T19:11:18.743Z,2.20
2022-07-29T19:13:44.913Z,2.22
2022-07-29T19:16:13.465Z,2.50
2022-07-29T19:18:39.932Z,2.20
2022-07-29T19:21:06.119Z,1.85
2022-07-29T19:23:32.343Z,2.03
2022-07-29T19:26:20.500Z,2.10
2022-07-29T19:28:49.071Z,2.10
2022-07-29T19:31:15.516Z,1.92
2022-07-29T19:33:42.629Z,2.30
2022-07-29T19:36:08.897Z,2.00
2022-07-29T19:38:35.070Z,2.00
2022-07-29T19:41:01.224Z,2.00
2022-07-29T19:43:51.442Z,2.00
2022-07-29T19:46:13.542Z,2.25
2022-07-29T19:48:39.892Z,2.17
2022-07-29T19:51:06.079Z,2.25
2022-07-29T19:53:32.996Z,2.58
2022-07-29T19:55:59.139Z,2.08
2022-07-29T19:58:26.949Z,1.95
2022-07-29T20:00:53.365Z,2.10
2022-07-29T20:03:19.732Z,2.20
2022-07-29T20:05:48.027Z,2.50
2022-07-29T20:08:14.595Z,2.20
2022-07-29T20:10:40.747Z,1.90
2022-07-29T20:13:06.912Z,2.40
2022-07-29T20:15:33.132Z,2.50
2022-07-29T20:17:59.315Z,2.20
2022-07-29T20:20:25.862Z,2.35
2022-07-29T20:22:53.092Z,2.30
2022-07-29T20:25:19.275Z,2.30
2022-07-29T20:27:45.572Z,2.30
2022-07-29T20:30:14.230Z,2.30
2022-07-29T20:32:41.867Z,2.55
2022-07-29T20:35:10.008Z,2.30
2022-07-29T20:37:52.142Z,2.28
2022-07-29T20:40:22.438Z,2.55
2022-07-29T20:42:48.595Z,2.05
2022-07-29T20:45:14.756Z,2.20
2022-07-29T20:47:40.974Z,2.47
2022-07-29T20:50:07.631Z,2.38
2022-07-29T20:52:33.831Z,2.15
2022-07-29T20:55:00.031Z,2.05
2022-07-29T20:57:38.953Z,2.03
2022-07-29T21:00:06.891Z,2.40
2022-07-29T21:02:33.483Z,2.42
2022-07-29T21:05:00.070Z,2.63
2022-07-29T21:07:26.249Z,2.28
2022-07-29T21:09:52.415Z,2.08
2022-07-29T21:12:18.859Z,2.30
2022-07-29T21:14:48.161Z,3.05
2022-07-29T21:17:15.823Z,2.25
2022-07-29T21:19:42.587Z,2.53
2022-07-29T21:22:09.083Z,2.15
2022-07-29T21:24:35.303Z,2.50
2022-07-29T21:27:21.519Z,2.40
2022-07-29T21:29:48.127Z,2.20
2022-07-29T21:32:14.348Z,2.50
2022-07-29T21:34:53.845Z,2.28
2022-07-29T21:37:20.072Z,2.20
2022-07-29T21:39:46.231Z,2.55
2022-07-29T21:42:12.566Z,2.60
2022-07-29T21:44:41.333Z,2.47
2022-07-29T21:47:09.569Z,2.40
2022-07-29T21:49:35.788Z,2.13
2022-07-29T21:52:04.103Z,2.35
2022-07-29T21:54:30.283Z,2.42
2022-07-29T21:56:56.514Z,2.60
2022-07-29T21:59:24.043Z,2.20
2022-07-29T22:01:50.340Z,2.72
2022-07-29T22:04:16.614Z,2.20
2022-07-29T22:06:42.824Z,2.33
2022-07-29T22:09:08.974Z,2.35
2022-07-29T22:11:36.838Z,2.35
2022-07-29T22:14:04.357Z,2.50
2022-07-29T22:16:30.559Z,2.25
2022-07-29T22:18:56.752Z,2.17
2022-07-29T22:21:22.896Z,2.38
2022-07-29T22:23:49.077Z,2.45
2022-07-29T22:26:15.227Z,2.83
2022-07-29T22:28:41.560Z,2.20
2022-07-29T22:31:07.959Z,2.20
2022-07-29T22:33:34.170Z,2.42
2022-07-29T22:36:00.310Z,2.53
2022-07-29T22:38:26.479Z,2.10
2022-07-29T22:40:52.620Z,2.40
2022-07-29T22:43:19.013Z,2.00
2022-07-29T22:45:45.223Z,2.20
2022-07-29T22:48:11.695Z,2.05
2022-07-29T22:50:38.506Z,2.15
2022-07-29T22:53:04.667Z,2.75
2022-07-29T22:55:30.842Z,2.22
2022-07-29T22:57:57.012Z,2.50
2022-07-29T23:00:23.191Z,2.72
2022-07-29T23:02:49.391Z,3.05
2022-07-29T23:05:16.055Z,2.63
2022-07-29T23:07:42.297Z,2.38
2022-07-29T23:10:09.029Z,2.25
2022-07-29T23:12:35.225Z,2.40
2022-07-29T23:15:01.374Z,2.28
2022-07-29T23:17:27.557Z,2.08
2022-07-29T23:19:53.726Z,2.00
2022-07-29T23:22:19.882Z,1.90
2022-07-29T23:24:46.088Z,2.35
2022-07-29T23:27:12.263Z,2.55
2022-07-29T23:29:38.411Z,2.00
2022-07-29T23:32:04.934Z,2.22
2022-07-29T23:34:31.074Z,2.60
2022-07-29T23:36:57.500Z,2.33
2022-07-29T23:39:23.874Z,2.55
2022-07-29T23:41:50.105Z,2.40
2022-07-29T23:44:20.064Z,2.17
2022-07-29T23:46:46.327Z,2.95
2022-07-29T23:49:13.695Z,3.33
2022-07-29T23:51:39.912Z,2.60
2022-07-29T23:54:06.106Z,2.53
2022-07-29T23:56:32.251Z,2.13
2022-07-29T23:58:58.403Z,2.90
